Time;durP1;ratioP1;P1;durP2;ratioP2;P2;SDS_P1;SDS_P2;PMS_P1;PMS_P2;Temp;Humidity;BMP_temperature;BMP_pressure;BME280_temperature;BME280_humidity;BME280_pressure;Samples;Min_cycle;Max_cycle;Signal;HPM_P1;HPM_P2
2022/10/19 00:01:09;;;;;;;3.90;3.60;;;24.90;69.10;;;;;;5072076;28;20466;-82
2022/10/19 00:03:37;;;;;;;3.70;3.47;;;24.90;69.10;;;;;;5088383;28;20470;-82
2022/10/19 00:06:14;;;;;;;3.47;3.27;;;24.90;69.10;;;;;;5076830;28;20534;-82
2022/10/19 00:08:43;;;;;;;3.23;3.03;;;24.90;69.10;;;;;;5082176;28;20460;-82
2022/10/19 00:11:13;;;;;;;3.27;3.07;;;24.90;69.10;;;;;;5075820;28;20918;-85
2022/10/19 00:13:41;;;;;;;3.80;3.60;;;24.90;69.10;;;;;;5087013;28;20541;-82
2022/10/19 00:16:11;;;;;;;4.20;3.87;;;24.90;69.10;;;;;;5093588;28;20461;-82
2022/10/19 00:18:42;;;;;;;3.80;3.53;;;24.90;69.10;;;;;;5075174;28;20485;-82
2022/10/19 00:21:12;;;;;;;3.80;3.60;;;24.90;69.10;;;;;;5078346;28;20494;-83
2022/10/19 00:23:40;;;;;;;4.17;3.77;;;24.90;69.10;;;;;;5087954;28;20459;-82
2022/10/19 00:26:08;;;;;;;3.50;3.27;;;24.90;69.10;;;;;;5094984;28;21019;-82
2022/10/19 00:28:38;;;;;;;3.20;3.00;;;24.90;69.10;;;;;;5094459;28;20443;-82
2022/10/19 00:31:09;;;;;;;3.40;3.20;;;24.90;69.10;;;;;;5075220;28;20446;-83
2022/10/19 00:33:37;;;;;;;4.47;3.80;;;24.90;69.10;;;;;;5083659;28;20473;-82
2022/10/19 00:36:06;;;;;;;3.57;3.27;;;24.80;69.10;;;;;;5078876;28;20521;-82
2022/10/19 00:38:34;;;;;;;3.77;3.57;;;24.80;69.10;;;;;;5086623;28;20460;-82
2022/10/19 00:41:02;;;;;;;4.13;3.83;;;24.80;69.10;;;;;;5075433;28;20465;-82
2022/10/19 00:43:31;;;;;;;3.57;3.30;;;24.80;69.10;;;;;;5077298;28;20450;-82
2022/10/19 00:46:00;;;;;;;3.30;3.10;;;24.80;69.00;;;;;;5095222;28;20459;-82
2022/10/19 00:48:32;;;;;;;3.33;3.03;;;24.80;69.00;;;;;;5092316;28;21208;-83
2022/10/19 00:51:01;;;;;;;3.20;2.90;;;24.80;69.00;;;;;;5095487;28;20440;-82
2022/10/19 00:53:31;;;;;;;3.27;3.07;;;24.80;69.00;;;;;;5093760;28;20463;-82
2022/10/19 00:56:03;;;;;;;3.87;3.60;;;24.80;69.00;;;;;;5092363;28;20786;-84
2022/10/19 00:58:31;;;;;;;3.73;3.43;;;24.80;69.00;;;;;;5077442;28;20451;-83
2022/10/19 01:01:04;;;;;;;3.63;3.43;;;24.80;69.00;;;;;;5092357;28;20471;-83
2022/10/19 01:03:33;;;;;;;3.73;3.47;;;24.80;69.00;;;;;;5110044;28;20541;-86
2022/10/19 01:06:01;;;;;;;3.63;3.43;;;24.80;69.00;;;;;;5076676;28;20542;-82
2022/10/19 01:08:30;;;;;;;3.40;3.20;;;24.80;69.00;;;;;;5091734;28;20880;-83
2022/10/19 01:11:13;;;;;;;3.10;2.90;;;24.70;69.00;;;;;;5076101;28;20913;-82
2022/10/19 01:13:50;;;;;;;3.87;3.53;;;24.70;69.00;;;;;;5092236;28;20499;-83
2022/10/19 01:19:23;;;;;;;4.37;3.97;;;24.70;69.00;;;;;;5250335;22;20537;-83
2022/10/19 01:22:04;;;;;;;4.10;3.80;;;24.70;69.00;;;;;;5049222;28;20971;-82
2022/10/19 01:24:51;;;;;;;3.80;3.50;;;24.70;69.00;;;;;;5053463;28;21324;-82
2022/10/19 01:27:43;;;;;;;3.73;3.50;;;24.70;68.90;;;;;;5054138;28;20447;-86
2022/10/19 01:30:25;;;;;;;3.30;3.10;;;24.70;69.00;;;;;;5034437;28;20434;-83
2022/10/19 01:33:02;;;;;;;3.30;3.10;;;24.70;69.00;;;;;;5033562;28;20523;-82
2022/10/19 01:35:39;;;;;;;3.40;3.20;;;24.70;69.00;;;;;;5036003;28;20440;-82
2022/10/19 01:38:26;;;;;;;3.87;3.57;;;24.70;68.90;;;;;;5047345;28;20462;-82
2022/10/19 01:41:02;;;;;;;3.30;3.00;;;24.70;68.90;;;;;;5034515;28;20470;-82
2022/10/19 01:43:40;;;;;;;3.37;3.17;;;24.70;68.90;;;;;;5049120;28;20462;-82
2022/10/19 01:46:13;;;;;;;3.87;3.57;;;24.70;68.90;;;;;;5073589;28;20438;-83
2022/10/19 01:48:50;;;;;;;4.13;3.83;;;24.70;68.90;;;;;;5055742;28;20460;-83
2022/10/19 01:51:22;;;;;;;3.60;3.40;;;24.70;68.90;;;;;;5054014;28;20431;-82
2022/10/19 01:53:54;;;;;;;3.43;3.23;;;24.70;68.90;;;;;;5051625;28;20447;-82
2022/10/19 01:56:26;;;;;;;3.53;3.23;;;24.70;68.90;;;;;;5053808;28;20452;-82
2022/10/19 01:58:56;;;;;;;3.50;3.30;;;24.70;68.90;;;;;;5056703;28;20453;-82
2022/10/19 02:01:29;;;;;;;3.17;2.97;;;24.70;68.90;;;;;;5072551;28;20479;-82
2022/10/19 02:03:58;;;;;;;3.43;3.13;;;24.70;68.90;;;;;;5039747;28;20476;-82
2022/10/19 02:06:26;;;;;;;3.67;3.43;;;24.60;68.90;;;;;;5033885;28;20442;-82
2022/10/19 02:08:55;;;;;;;3.40;3.20;;;24.60;68.90;;;;;;5041492;28;20519;-82
2022/10/19 02:11:24;;;;;;;3.10;2.90;;;24.60;69.00;;;;;;5053648;28;20435;-82
2022/10/19 02:13:58;;;;;;;3.60;3.30;;;24.60;68.90;;;;;;5050694;28;20464;-82
2022/10/19 02:16:32;;;;;;;2.90;2.70;;;24.60;69.00;;;;;;5054043;28;20426;-82
2022/10/19 02:19:02;;;;;;;4.00;3.70;;;24.60;68.90;;;;;;5063335;28;20502;-82
2022/10/19 02:21:32;;;;;;;3.30;3.03;;;24.60;69.00;;;;;;5072975;28;20482;-82
2022/10/19 02:24:00;;;;;;;3.57;3.37;;;24.60;68.90;;;;;;5073882;28;20449;-82
2022/10/19 02:26:28;;;;;;;3.40;3.20;;;24.60;68.90;;;;;;5060932;28;20475;-82
2022/10/19 02:28:56;;;;;;;3.37;3.17;;;24.60;69.00;;;;;;5056348;28;20467;-84
2022/10/19 02:31:26;;;;;;;4.00;3.70;;;24.60;68.90;;;;;;5062557;28;20950;-82
2022/10/19 02:33:55;;;;;;;3.53;3.33;;;24.60;68.90;;;;;;5053556;28;20451;-82
2022/10/19 02:36:23;;;;;;;3.60;3.40;;;24.60;68.90;;;;;;5056694;28;20451;-82
2022/10/19 02:38:51;;;;;;;3.70;3.40;;;24.60;68.90;;;;;;5063407;28;20463;-82
2022/10/19 02:41:24;;;;;;;3.40;3.20;;;24.60;68.90;;;;;;5068349;28;20472;-82
2022/10/19 02:43:58;;;;;;;3.30;3.10;;;24.60;68.90;;;;;;5053828;28;20450;-82
2022/10/19 02:46:31;;;;;;;2.90;2.70;;;24.60;68.90;;;;;;5068584;28;21032;-85
2022/10/19 02:49:04;;;;;;;3.50;3.30;;;24.60;68.90;;;;;;5072390;28;20457;-82
2022/10/19 02:51:34;;;;;;;3.43;3.23;;;24.60;68.90;;;;;;5071059;28;20479;-82
2022/10/19 02:54:04;;;;;;;3.97;3.70;;;24.60;68.80;;;;;;5054764;28;20937;-82
2022/10/19 02:56:32;;;;;;;4.00;3.70;;;24.60;68.90;;;;;;5053129;28;20523;-82
2022/10/19 02:59:01;;;;;;;3.90;3.60;;;24.60;68.80;;;;;;5061997;28;20593;-82
2022/10/19 03:01:31;;;;;;;3.53;3.30;;;24.60;68.80;;;;;;5072952;28;20961;-82
2022/10/19 03:03:59;;;;;;;3.37;3.17;;;24.60;68.80;;;;;;5071291;28;20467;-82
2022/10/19 03:06:29;;;;;;;3.47;3.27;;;24.60;68.80;;;;;;5073223;28;20444;-82
2022/10/19 03:08:57;;;;;;;3.10;2.90;;;24.60;68.80;;;;;;5068138;28;20470;-82
2022/10/19 03:11:25;;;;;;;3.50;3.30;;;24.60;68.80;;;;;;5072700;28;20792;-82
2022/10/19 03:13:53;;;;;;;3.83;3.20;;;24.60;68.80;;;;;;5061235;28;20459;-82
2022/10/19 03:16:21;;;;;;;2.83;2.73;;;24.60;68.80;;;;;;5053161;28;20461;-82
2022/10/19 03:18:51;;;;;;;4.10;3.80;;;24.60;68.80;;;;;;5056703;28;20584;-82
2022/10/19 03:21:19;;;;;;;3.80;3.50;;;24.60;68.80;;;;;;5059679;28;20838;-82
2022/10/19 03:23:47;;;;;;;3.57;3.27;;;24.60;68.80;;;;;;5071545;28;20425;-82
2022/10/19 03:26:17;;;;;;;3.80;3.50;;;24.60;68.80;;;;;;5072497;28;20425;-82
2022/10/19 03:28:45;;;;;;;3.13;2.93;;;24.60;68.80;;;;;;5067636;28;20454;-82
2022/10/19 03:31:13;;;;;;;3.27;3.03;;;24.60;68.70;;;;;;5072579;28;20455;-82
2022/10/19 03:33:41;;;;;;;3.20;3.00;;;24.60;68.70;;;;;;5072973;28;20944;-82
2022/10/19 03:36:20;;;;;;;3.43;3.23;;;24.60;68.70;;;;;;5055434;28;20466;-82
2022/10/19 03:38:50;;;;;;;3.53;3.33;;;24.60;68.70;;;;;;5061050;28;20476;-82
2022/10/19 03:41:18;;;;;;;3.63;3.43;;;24.60;68.70;;;;;;5060287;28;20474;-82
2022/10/19 03:43:46;;;;;;;3.77;3.50;;;24.60;68.70;;;;;;5056310;28;20450;-82
2022/10/19 03:46:15;;;;;;;3.73;3.53;;;24.60;68.70;;;;;;5067954;28;20451;-82
2022/10/19 03:48:44;;;;;;;3.23;3.03;;;24.60;68.70;;;;;;5076464;28;20470;-83
2022/10/19 03:51:15;;;;;;;4.10;3.80;;;24.60;68.70;;;;;;5070619;28;20459;-82
2022/10/19 03:53:44;;;;;;;3.13;2.93;;;24.60;68.70;;;;;;5056395;28;20453;-82
2022/10/19 03:56:13;;;;;;;2.80;2.70;;;24.60;68.70;;;;;;5054721;28;20427;-82
2022/10/19 03:58:43;;;;;;;3.10;2.90;;;24.60;68.60;;;;;;5073128;28;20467;-82
2022/10/19 04:01:14;;;;;;;3.10;2.90;;;24.60;68.70;;;;;;5075538;28;20478;-83
2022/10/19 04:03:43;;;;;;;3.10;2.90;;;24.60;68.70;;;;;;5075684;28;20464;-82
2022/10/19 04:06:13;;;;;;;3.60;3.40;;;24.60;68.70;;;;;;5075218;28;20904;-83
2022/10/19 04:08:50;;;;;;;3.13;2.93;;;24.60;68.70;;;;;;5073080;28;20451;-82
2022/10/19 04:11:20;;;;;;;4.20;3.90;;;24.60;68.70;;;;;;5076455;28;20438;-82
2022/10/19 04:13:49;;;;;;;3.93;3.63;;;24.60;68.60;;;;;;5066077;28;20815;-82
2022/10/19 04:16:18;;;;;;;4.00;3.70;;;24.60;68.60;;;;;;5066121;28;20445;-83
2022/10/19 04:18:47;;;;;;;3.43;3.23;;;24.60;68.60;;;;;;5071124;28;20503;-82
2022/10/19 04:21:24;;;;;;;3.20;3.00;;;24.50;68.60;;;;;;5071788;28;20465;-82
2022/10/19 04:23:57;;;;;;;3.50;3.27;;;24.60;68.70;;;;;;5070506;28;20470;-83
2022/10/19 04:26:25;;;;;;;3.80;3.57;;;24.50;68.70;;;;;;5066786;28;20440;-82
2022/10/19 04:28:53;;;;;;;3.33;3.13;;;24.60;68.60;;;;;;5074058;28;20452;-83
2022/10/19 04:31:22;;;;;;;3.50;3.30;;;24.50;68.60;;;;;;5069689;28;20454;-82
2022/10/19 04:33:50;;;;;;;3.70;3.50;;;24.50;68.60;;;;;;5075380;28;20502;-82
2022/10/19 04:36:18;;;;;;;3.37;3.17;;;24.50;68.60;;;;;;5058252;28;20462;-82
2022/10/19 04:38:46;;;;;;;3.10;2.90;;;24.50;68.60;;;;;;5075641;28;20453;-82
2022/10/19 04:41:18;;;;;;;3.57;3.37;;;24.50;68.60;;;;;;5075608;28;20441;-82
2022/10/19 04:43:46;;;;;;;3.50;3.20;;;24.50;68.70;;;;;;5075453;28;20469;-82
2022/10/19 04:46:16;;;;;;;3.77;3.47;;;24.50;68.60;;;;;;5070131;28;20832;-82
2022/10/19 04:48:46;;;;;;;3.27;3.07;;;24.50;68.60;;;;;;5075358;28;20450;-81
2022/10/19 04:51:14;;;;;;;3.03;2.83;;;24.50;68.70;;;;;;5073372;28;20459;-82
2022/10/19 04:53:43;;;;;;;3.70;3.40;;;24.50;68.80;;;;;;5066262;28;20510;-82
2022/10/19 04:56:13;;;;;;;4.03;3.63;;;24.50;69.10;;;;;;5073157;28;20442;-83
2022/10/19 04:58:43;;;;;;;3.53;3.33;;;24.50;69.30;;;;;;5067716;28;20444;-81
2022/10/19 05:01:13;;;;;;;3.70;3.40;;;24.50;69.30;;;;;;5067631;28;20457;-81
2022/10/19 05:03:41;;;;;;;5.17;3.53;;;24.50;69.20;;;;;;5075559;28;20481;-81
2022/10/19 05:06:10;;;;;;;3.63;3.33;;;24.50;69.30;;;;;;5076293;28;20447;-81
2022/10/19 05:08:38;;;;;;;3.43;3.20;;;24.50;69.40;;;;;;5066908;28;20447;-82
2022/10/19 05:11:08;;;;;;;4.03;3.63;;;24.50;69.50;;;;;;5064661;28;20455;-81
2022/10/19 05:13:37;;;;;;;3.37;3.07;;;24.50;69.40;;;;;;5075322;28;20964;-80
2022/10/19 05:16:10;;;;;;;5.47;5.00;;;24.50;69.50;;;;;;5072205;28;20490;-79
2022/10/19 05:18:38;;;;;;;4.40;4.00;;;24.50;69.50;;;;;;5093559;22;20505;-80
2022/10/19 05:21:08;;;;;;;3.90;3.60;;;24.50;69.50;;;;;;5093065;28;20825;-81
2022/10/19 05:23:37;;;;;;;3.87;3.47;;;24.50;69.50;;;;;;5094436;28;20473;-81
2022/10/19 05:26:07;;;;;;;4.20;3.90;;;24.50;69.60;;;;;;5091854;28;20526;-81
2022/10/19 05:28:36;;;;;;;3.77;3.57;;;24.50;69.60;;;;;;5092846;28;20462;-81
2022/10/19 05:31:15;;;;;;;4.27;3.40;;;24.50;69.60;;;;;;5076650;28;20449;-81
2022/10/19 05:33:44;;;;;;;3.70;3.00;;;24.50;69.60;;;;;;5085880;28;20458;-81
2022/10/19 05:36:17;;;;;;;7.27;3.73;;;24.50;69.60;;;;;;5086015;28;20447;-81
2022/10/19 05:38:47;;;;;;;3.20;3.00;;;24.50;69.60;;;;;;5081956;28;20450;-80
2022/10/19 05:41:16;;;;;;;5.67;4.20;;;24.50;69.60;;;;;;5085812;28;20446;-81
2022/10/19 05:43:44;;;;;;;3.90;3.60;;;24.50;69.60;;;;;;5094635;28;20469;-81
2022/10/19 05:46:17;;;;;;;4.17;3.10;;;24.50;69.60;;;;;;5092859;28;20703;-82
2022/10/19 05:48:46;;;;;;;4.00;3.60;;;24.50;69.70;;;;;;5087917;28;20478;-81
2022/10/19 05:51:17;;;;;;;5.83;3.47;;;24.50;69.70;;;;;;5084987;28;20465;-81
2022/10/19 05:53:45;;;;;;;4.10;3.80;;;24.50;69.70;;;;;;5092649;28;20450;-81
2022/10/19 05:56:15;;;;;;;4.43;3.47;;;24.50;69.60;;;;;;5093638;28;20457;-81
2022/10/19 05:58:43;;;;;;;4.33;3.97;;;24.50;69.60;;;;;;5094143;28;20437;-81
2022/10/19 06:01:12;;;;;;;3.87;3.43;;;24.50;69.50;;;;;;5093032;28;20774;-81
2022/10/19 06:03:42;;;;;;;7.20;3.60;;;24.50;69.50;;;;;;5091732;28;20472;-81
2022/10/19 06:06:10;;;;;;;4.30;4.00;;;24.50;69.50;;;;;;5073715;28;20442;-82
2022/10/19 06:08:39;;;;;;;3.77;3.47;;;24.50;69.50;;;;;;5082833;28;20445;-82
2022/10/19 06:11:10;;;;;;;4.37;3.97;;;24.50;69.40;;;;;;5093976;28;20458;-80
2022/10/19 06:13:39;;;;;;;4.97;4.20;;;24.50;69.40;;;;;;5090797;28;20457;-82
2022/10/19 06:16:09;;;;;;;5.83;3.50;;;24.50;69.40;;;;;;5077161;28;20462;-82
2022/10/19 06:18:37;;;;;;;4.90;4.40;;;24.50;69.40;;;;;;5085364;28;21036;-81
2022/10/19 06:21:10;;;;;;;3.60;3.30;;;24.50;69.40;;;;;;5090845;28;20442;-85
2022/10/19 06:23:38;;;;;;;5.00;4.60;;;24.50;69.70;;;;;;5090418;28;20950;-86
2022/10/19 06:26:09;;;;;;;4.43;4.03;;;24.50;70.00;;;;;;5094117;28;20443;-85
2022/10/19 06:28:39;;;;;;;3.50;3.00;;;24.50;70.10;;;;;;5093017;28;20450;-85
2022/10/19 06:31:08;;;;;;;5.60;3.70;;;24.50;70.20;;;;;;5093508;28;20449;-85
2022/10/19 06:33:36;;;;;;;3.77;3.53;;;24.50;70.20;;;;;;5093287;28;20518;-87
2022/10/19 06:36:11;;;;;;;5.73;3.97;;;24.50;70.30;;;;;;5093328;28;20467;-87
2022/10/19 06:38:39;;;;;;;3.50;3.20;;;24.60;70.30;;;;;;5092628;28;20442;-85
2022/10/19 06:41:07;;;;;;;4.33;3.13;;;24.60;70.30;;;;;;5093292;28;20458;-83
2022/10/19 06:43:35;;;;;;;7.33;4.30;;;24.60;70.30;;;;;;5090480;28;20466;-84
2022/10/19 06:46:05;;;;;;;3.90;3.50;;;24.60;70.30;;;;;;5093212;28;20788;-84
2022/10/19 06:48:33;;;;;;;3.80;3.43;;;24.60;70.30;;;;;;5091244;28;20804;-83
2022/10/19 06:51:03;;;;;;;4.20;3.80;;;24.70;70.30;;;;;;5092528;28;20455;-86
2022/10/19 06:53:35;;;;;;;4.70;3.40;;;24.70;70.30;;;;;;5089841;28;20465;-86
2022/10/19 06:56:05;;;;;;;3.33;3.03;;;24.70;70.30;;;;;;5093352;28;20449;-84
2022/10/19 06:58:36;;;;;;;3.47;3.27;;;24.70;70.30;;;;;;5082907;28;20451;-84
2022/10/19 07:01:06;;;;;;;6.20;3.70;;;24.70;70.30;;;;;;5087127;28;20444;-84
2022/10/19 07:03:35;;;;;;;3.70;3.30;;;24.70;70.30;;;;;;5090895;28;20475;-85
2022/10/19 07:06:05;;;;;;;3.93;3.60;;;24.70;70.30;;;;;;5078083;28;20434;-86
2022/10/19 07:08:36;;;;;;;5.13;2.60;;;24.70;70.30;;;;;;5080629;28;20802;-85
2022/10/19 07:11:06;;;;;;;3.60;3.30;;;24.70;70.20;;;;;;5080367;28;20458;-84
2022/10/19 07:13:35;;;;;;;3.83;3.50;;;24.70;70.20;;;;;;5071738;28;20545;-84
2022/10/19 07:16:05;;;;;;;3.80;3.50;;;24.80;70.20;;;;;;5076222;28;20444;-84
2022/10/19 07:18:34;;;;;;;3.43;3.13;;;24.80;70.20;;;;;;5084678;28;20490;-86
2022/10/19 07:21:05;;;;;;;4.30;3.90;;;24.80;70.20;;;;;;5082446;28;20457;-86
2022/10/19 07:23:37;;;;;;;3.77;3.37;;;24.80;70.10;;;;;;5083359;28;20466;-87
2022/10/19 07:26:08;;;;;;;3.57;3.37;;;24.80;70.10;;;;;;5082357;28;20463;-86
2022/10/19 07:28:36;;;;;;;3.60;3.30;;;24.80;70.10;;;;;;5073515;28;20470;-86
2022/10/19 07:31:06;;;;;;;4.07;3.20;;;24.80;70.10;;;;;;5082444;28;20454;-85
2022/10/19 07:33:34;;;;;;;3.37;3.17;;;24.80;70.00;;;;;;5072863;28;20444;-85
2022/10/19 07:36:05;;;;;;;3.63;3.33;;;24.90;70.00;;;;;;5075333;28;20883;-87
2022/10/19 07:38:35;;;;;;;5.73;3.47;;;24.90;70.00;;;;;;5086949;28;20453;-86
2022/10/19 07:41:06;;;;;;;3.27;2.97;;;24.90;70.00;;;;;;5084439;28;20547;-83
2022/10/19 07:43:34;;;;;;;3.27;2.97;;;24.90;70.00;;;;;;5084926;28;20566;-86
2022/10/19 07:46:04;;;;;;;3.30;3.10;;;24.90;69.90;;;;;;5081275;28;20466;-84
2022/10/19 07:48:33;;;;;;;2.73;2.63;;;24.90;69.90;;;;;;5090293;28;20449;-84
2022/10/19 07:51:02;;;;;;;4.67;3.60;;;24.90;69.90;;;;;;5092274;28;20439;-86
2022/10/19 07:53:31;;;;;;;2.80;2.60;;;24.90;69.80;;;;;;5092092;28;20458;-85
2022/10/19 07:56:04;;;;;;;3.63;3.43;;;24.90;69.80;;;;;;5092847;28;20439;-88
2022/10/19 07:58:33;;;;;;;3.87;3.60;;;24.90;69.80;;;;;;5075164;28;20455;-86
2022/10/19 08:01:02;;;;;;;3.40;3.10;;;24.90;69.80;;;;;;5091598;28;20451;-85
2022/10/19 08:03:30;;;;;;;3.27;3.07;;;24.90;69.80;;;;;;5090953;28;20460;-84
2022/10/19 08:06:18;;;;;;;3.33;3.03;;;25.00;69.80;;;;;;5090232;28;20976;-84
2022/10/19 08:08:48;;;;;;;3.10;2.90;;;25.00;69.70;;;;;;5083292;28;20808;-84
2022/10/19 08:11:20;;;;;;;3.30;3.10;;;25.00;69.70;;;;;;5080516;28;20470;-87
2022/10/19 08:13:48;;;;;;;2.80;2.70;;;25.00;69.70;;;;;;5092170;28;20461;-86
2022/10/19 08:16:28;;;;;;;3.80;3.60;;;25.00;69.60;;;;;;5090479;28;20495;-86
2022/10/19 08:18:58;;;;;;;3.53;2.83;;;25.00;69.60;;;;;;5077815;28;20504;-84
2022/10/19 08:21:27;;;;;;;2.93;2.73;;;25.00;69.60;;;;;;5091732;28;20947;-84
2022/10/19 08:23:55;;;;;;;3.63;3.43;;;25.00;69.60;;;;;;5092589;28;20474;-84
2022/10/19 08:26:27;;;;;;;3.27;2.97;;;25.00;69.60;;;;;;5095420;28;20467;-85
2022/10/19 08:28:59;;;;;;;4.30;3.37;;;25.00;69.40;;;;;;5079501;28;20459;-83
2022/10/19 08:31:27;;;;;;;4.20;2.80;;;25.00;69.40;;;;;;5096051;28;20927;-83
2022/10/19 08:33:56;;;;;;;2.80;2.60;;;25.00;69.60;;;;;;5091490;28;20462;-81
2022/10/19 08:36:24;;;;;;;2.90;2.73;;;25.00;69.60;;;;;;5095369;28;20447;-80
2022/10/19 08:38:52;;;;;;;3.40;3.20;;;25.00;69.50;;;;;;5087521;28;20460;-86
2022/10/19 08:41:29;;;;;;;3.40;3.10;;;25.00;69.50;;;;;;5080651;28;20818;-86
2022/10/19 08:44:20;;;;;;;5.90;3.30;;;25.00;69.60;;;;;;5086122;28;20486;-85
2022/10/19 08:46:58;;;;;;;3.90;2.97;;;25.00;69.60;;;;;;5075378;28;20938;-83
2022/10/19 08:49:31;;;;;;;3.07;2.80;;;25.00;69.60;;;;;;5084820;28;20484;-83
2022/10/19 08:52:02;;;;;;;3.53;3.23;;;25.00;69.50;;;;;;5085051;28;20537;-85
2022/10/19 08:54:37;;;;;;;3.10;2.90;;;25.10;69.50;;;;;;5082536;28;20481;-85
2022/10/19 08:57:20;;;;;;;3.00;2.80;;;25.10;69.50;;;;;;5087882;28;20481;-85
2022/10/19 08:59:54;;;;;;;3.60;3.13;;;25.10;69.50;;;;;;5083852;28;20443;-83
2022/10/19 09:02:37;;;;;;;3.07;2.87;;;25.10;69.40;;;;;;5092916;28;20444;-86
2022/10/19 09:05:13;;;;;;;3.30;3.10;;;25.10;69.50;;;;;;5094707;28;20473;-84
2022/10/19 09:07:44;;;;;;;2.67;2.47;;;25.10;69.40;;;;;;5078220;28;20441;-85
2022/10/19 09:10:23;;;;;;;2.70;2.50;;;25.10;69.40;;;;;;5084964;28;20936;-86
2022/10/19 09:12:58;;;;;;;3.30;3.10;;;25.10;69.40;;;;;;5100157;28;20477;-87
2022/10/19 09:15:33;;;;;;;2.40;2.30;;;25.10;69.40;;;;;;5075681;28;20449;-84
2022/10/19 09:18:02;;;;;;;3.63;3.43;;;25.10;69.30;;;;;;5082180;28;20478;-84
2022/10/19 09:20:37;;;;;;;3.00;2.80;;;25.10;69.30;;;;;;5095191;28;20921;-82
2022/10/19 09:23:17;;;;;;;2.90;2.70;;;25.10;69.40;;;;;;5093810;28;20464;-83
2022/10/19 09:25:48;;;;;;;2.50;2.30;;;25.10;69.40;;;;;;5084018;28;20471;-81
2022/10/19 09:28:30;;;;;;;2.90;2.70;;;25.10;69.40;;;;;;5079897;28;20457;-85
2022/10/19 09:31:12;;;;;;;2.90;2.70;;;25.10;69.30;;;;;;5074164;28;20453;-84
2022/10/19 09:33:41;;;;;;;3.20;3.00;;;25.10;69.30;;;;;;5083923;28;20493;-82
2022/10/19 09:36:10;;;;;;;3.00;2.80;;;25.10;69.30;;;;;;5090811;28;20459;-81
2022/10/19 09:38:50;;;;;;;3.17;2.97;;;25.10;69.30;;;;;;5087284;28;20467;-85
2022/10/19 09:41:20;;;;;;;3.10;2.90;;;25.10;69.20;;;;;;5094561;28;20466;-84
2022/10/19 09:43:54;;;;;;;3.20;3.00;;;25.10;69.20;;;;;;5092360;28;20502;-84
2022/10/19 09:46:36;;;;;;;3.10;2.90;;;25.10;69.20;;;;;;5086840;28;20483;-84
2022/10/19 09:49:06;;;;;;;3.00;2.80;;;25.10;69.20;;;;;;5096767;28;20448;-84
2022/10/19 09:51:45;;;;;;;2.80;2.70;;;25.10;69.20;;;;;;5090253;28;20445;-84
2022/10/19 09:54:26;;;;;;;2.53;2.43;;;25.10;69.20;;;;;;5089187;28;20474;-85
2022/10/19 09:56:56;;;;;;;5.77;2.97;;;25.20;69.20;;;;;;5084723;28;20454;-85
2022/10/19 09:59:29;;;;;;;3.10;2.90;;;25.10;69.10;;;;;;5096658;28;20478;-83
2022/10/19 10:02:15;;;;;;;3.47;2.70;;;25.20;69.10;;;;;;5094493;28;20447;-84
2022/10/19 10:04:46;;;;;;;2.13;2.03;;;25.10;69.00;;;;;;5089583;28;20463;-85
2022/10/19 10:07:17;;;;;;;2.57;2.37;;;25.10;68.90;;;;;;5080259;28;20538;-85
2022/10/19 10:09:46;;;;;;;2.70;2.50;;;25.10;68.80;;;;;;5092572;28;20792;-86
2022/10/19 10:12:15;;;;;;;2.73;2.50;;;25.10;68.80;;;;;;5091724;28;20451;-86
2022/10/19 10:14:45;;;;;;;2.83;2.53;;;25.10;68.80;;;;;;5093667;28;20973;-87
2022/10/19 10:17:17;;;;;;;2.47;2.30;;;25.10;68.80;;;;;;5093306;28;20483;-85
2022/10/19 10:20:03;;;;;;;2.63;2.43;;;25.10;68.70;;;;;;5091273;28;20442;-86
2022/10/19 10:22:33;;;;;;;2.43;2.33;;;25.10;68.70;;;;;;5084278;28;20838;-85
2022/10/19 10:25:16;;;;;;;2.47;2.27;;;25.10;68.70;;;;;;5091757;28;21889;-86
2022/10/19 10:27:54;;;;;;;2.37;2.27;;;25.10;68.70;;;;;;5091707;28;20455;-84
2022/10/19 10:30:24;;;;;;;2.33;2.20;;;25.10;68.70;;;;;;5093098;28;20528;-82
2022/10/19 10:32:54;;;;;;;2.60;2.50;;;25.10;68.70;;;;;;5093130;28;20517;-83
2022/10/19 10:35:33;;;;;;;2.40;2.30;;;25.10;68.60;;;;;;5088631;28;20486;-87
2022/10/19 10:38:13;;;;;;;2.60;2.40;;;25.10;68.60;;;;;;5081539;28;20450;-85
2022/10/19 10:40:50;;;;;;;3.37;3.07;;;25.10;68.60;;;;;;5090919;28;20459;-86
2022/10/19 10:43:30;;;;;;;3.60;3.30;;;25.10;68.60;;;;;;5091638;28;20450;-85
2022/10/19 10:46:05;;;;;;;4.70;2.90;;;25.10;68.60;;;;;;5076809;28;20485;-87
2022/10/19 10:48:38;;;;;;;4.00;3.30;;;25.10;68.60;;;;;;5076561;28;20813;-86
2022/10/19 10:51:19;;;;;;;7.63;3.67;;;25.10;68.60;;;;;;5092037;28;21313;-85
2022/10/19 10:53:48;;;;;;;4.10;3.70;;;25.10;68.60;;;;;;5081680;28;20587;-85
2022/10/19 10:56:23;;;;;;;8.80;3.60;;;25.10;68.60;;;;;;5092853;28;20498;-85
2022/10/19 10:58:57;;;;;;;5.30;4.30;;;25.10;68.60;;;;;;5086055;28;20462;-86
2022/10/19 11:01:32;;;;;;;6.90;4.60;;;25.10;68.60;;;;;;5084913;28;20476;-83
2022/10/19 11:04:03;;;;;;;9.20;4.90;;;25.10;68.60;;;;;;5093336;28;20519;-85
2022/10/19 11:06:34;;;;;;;9.83;5.80;;;25.10;68.60;;;;;;5088265;28;20810;-86
2022/10/19 11:09:14;;;;;;;6.80;5.13;;;25.10;68.70;;;;;;5086296;28;20540;-85
2022/10/19 11:11:47;;;;;;;8.90;5.40;;;25.10;68.60;;;;;;5093024;28;20454;-84
2022/10/19 11:14:26;;;;;;;10.03;6.53;;;25.10;68.60;;;;;;5075743;28;20456;-82
2022/10/19 11:16:59;;;;;;;13.80;5.67;;;25.10;68.70;;;;;;5075039;28;20455;-83
2022/10/19 11:19:33;;;;;;;12.73;6.20;;;25.10;68.70;;;;;;5090952;28;20486;-83
2022/10/19 11:22:10;;;;;;;12.43;5.90;;;25.10;68.70;;;;;;5090054;28;20456;-82
2022/10/19 11:24:50;;;;;;;13.70;7.30;;;25.00;68.70;;;;;;5084713;28;20859;-84
2022/10/19 11:27:30;;;;;;;12.83;6.37;;;25.00;68.70;;;;;;5093048;28;20478;-82
2022/10/19 11:30:12;;;;;;;11.93;6.07;;;25.00;68.70;;;;;;5083348;28;20456;-82
2022/10/19 11:33:06;;;;;;;10.30;7.10;;;25.00;68.70;;;;;;5086434;28;20460;-83
2022/10/19 11:35:51;;;;;;;15.37;6.10;;;25.00;68.70;;;;;;5085202;28;20795;-84
2022/10/19 11:38:32;;;;;;;17.10;7.40;;;25.00;68.70;;;;;;5081793;28;20471;-82
2022/10/19 11:41:12;;;;;;;17.60;7.27;;;25.00;68.80;;;;;;5085762;28;20456;-81
2022/10/19 11:43:56;;;;;;;12.00;7.90;;;25.00;68.80;;;;;;5091066;28;20445;-83
2022/10/19 11:46:32;;;;;;;13.03;6.80;;;25.00;68.80;;;;;;5082662;28;20489;-83
2022/10/19 11:49:15;;;;;;;28.63;8.30;;;25.00;68.80;;;;;;5091370;28;20569;-83
2022/10/19 11:51:50;;;;;;;15.73;7.57;;;25.00;68.80;;;;;;5082908;28;20467;-83
2022/10/19 11:54:31;;;;;;;20.47;7.53;;;25.00;68.80;;;;;;5078566;28;20444;-83
2022/10/19 11:57:03;;;;;;;19.30;8.90;;;25.00;68.80;;;;;;5073255;28;20462;-83
2022/10/19 11:59:53;;;;;;;16.50;8.20;;;25.00;68.70;;;;;;5070453;28;20481;-85
2022/10/19 12:02:55;;;;;;;13.70;6.43;;;25.00;68.80;;;;;;5092078;28;20453;-82
2022/10/19 12:05:36;;;;;;;11.90;7.63;;;25.00;68.70;;;;;;5086496;28;20453;-83
2022/10/19 12:08:16;;;;;;;13.23;7.07;;;25.00;68.70;;;;;;5078722;28;20469;-83
2022/10/19 12:10:50;;;;;;;13.20;8.10;;;25.00;69.10;;;;;;5093192;28;20452;-83
2022/10/19 12:13:23;;;;;;;12.43;6.97;;;25.00;69.20;;;;;;5094334;28;20455;-82
2022/10/19 12:15:53;;;;;;;12.30;6.73;;;25.00;69.30;;;;;;5092783;28;20878;-82
2022/10/19 12:18:28;;;;;;;14.13;8.30;;;25.00;69.30;;;;;;5093311;28;20503;-84
2022/10/19 12:21:01;;;;;;;13.70;7.03;;;25.00;69.30;;;;;;5090626;28;20464;-83
2022/10/19 12:23:32;;;;;;;11.27;7.57;;;25.00;69.30;;;;;;5090930;28;20465;-82
2022/10/19 12:26:03;;;;;;;9.70;6.63;;;25.10;69.30;;;;;;5093465;28;20467;-82
2022/10/19 12:28:34;;;;;;;10.70;7.20;;;25.10;69.30;;;;;;5079288;28;20467;-85
2022/10/19 12:31:04;;;;;;;13.77;8.40;;;25.10;69.20;;;;;;5088953;28;20546;-83
2022/10/19 12:33:46;;;;;;;15.40;7.70;;;25.10;69.20;;;;;;5094167;28;20459;-84
2022/10/19 12:36:28;;;;;;;12.73;7.97;;;25.10;69.30;;;;;;5095701;28;20514;-82
2022/10/19 12:39:02;;;;;;;9.97;6.33;;;25.10;69.30;;;;;;5079790;28;20930;-82
2022/10/19 12:41:36;;;;;;;9.83;6.37;;;25.10;69.40;;;;;;5075012;28;20451;-83
2022/10/19 12:44:19;;;;;;;8.70;6.70;;;25.10;69.40;;;;;;5075298;28;20427;-83
2022/10/19 12:46:51;;;;;;;8.23;6.40;;;25.10;69.50;;;;;;5075369;28;20471;-83
2022/10/19 12:49:47;;;;;;;9.47;6.43;;;25.10;69.60;;;;;;5075545;28;20438;-84
2022/10/19 12:52:36;;;;;;;10.20;6.70;;;25.10;69.70;;;;;;5084664;28;20935;-83
2022/10/19 12:55:12;;;;;;;14.47;7.40;;;25.10;69.70;;;;;;5095535;28;20901;-83
2022/10/19 12:57:42;;;;;;;9.43;6.30;;;25.10;69.60;;;;;;5088881;28;20454;-82
2022/10/19 13:00:21;;;;;;;7.80;6.40;;;25.10;69.60;;;;;;5095250;28;20440;-83
2022/10/19 13:02:57;;;;;;;9.70;6.23;;;25.20;69.70;;;;;;5085017;28;20486;-84
2022/10/19 13:05:29;;;;;;;12.23;7.30;;;25.20;69.80;;;;;;5089298;28;20515;-82
2022/10/19 13:08:02;;;;;;;13.97;5.97;;;25.20;69.80;;;;;;5064247;28;20475;-82
2022/10/19 13:10:32;;;;;;;9.37;6.13;;;25.20;69.80;;;;;;5095240;28;20481;-83
2022/10/19 13:13:03;;;;;;;9.60;6.63;;;25.30;70.00;;;;;;5090238;28;20897;-83
2022/10/19 13:15:55;;;;;;;8.90;7.23;;;25.30;70.00;;;;;;5080272;28;20850;-81